createdAt,value
2018-09-17T00:01:07.643Z,6.13
2018-09-17T00:03:36.718Z,5.60
2018-09-17T00:06:05.655Z,5.00
2018-09-17T00:08:34.655Z,5.00
2018-09-17T00:11:03.609Z,5.60
2018-09-17T00:13:32.553Z,4.90
2018-09-17T00:16:01.606Z,5.47
2018-09-17T00:18:30.583Z,5.90
2018-09-17T00:20:59.525Z,5.30
2018-09-17T00:23:28.583Z,6.30
2018-09-17T00:25:57.463Z,6.10
2018-09-17T00:28:26.375Z,5.53
2018-09-17T00:30:55.388Z,5.77
2018-09-17T00:33:24.333Z,6.13
2018-09-17T00:35:53.363Z,5.70
2018-09-17T00:38:22.347Z,7.00
2018-09-17T00:40:51.360Z,5.80
2018-09-17T00:43:21.345Z,6.70
2018-09-17T00:45:50.516Z,7.27
2018-09-17T00:48:19.984Z,7.60
2018-09-17T00:50:49.061Z,6.47
2018-09-17T00:53:18.054Z,6.93
2018-09-17T00:55:47.097Z,8.73
2018-09-17T00:58:15.943Z,8.40
2018-09-17T01:00:44.823Z,7.30
2018-09-17T01:03:17.270Z,7.30
2018-09-17T01:05:46.308Z,7.30
2018-09-17T01:08:15.178Z,8.67
2018-09-17T01:10:44.283Z,7.23
2018-09-17T01:13:13.221Z,6.90
2018-09-17T01:15:42.187Z,8.37
2018-09-17T01:18:11.144Z,8.40
2018-09-17T01:20:40.108Z,9.40
2018-09-17T01:23:09.048Z,9.40
2018-09-17T01:25:37.877Z,10.13
2018-09-17T01:28:06.821Z,10.80
2018-09-17T01:30:35.622Z,9.63
2018-09-17T01:33:04.616Z,9.67
2018-09-17T01:35:33.617Z,10.90
2018-09-17T01:38:02.587Z,12.17
2018-09-17T01:40:31.337Z,10.13
2018-09-17T01:43:00.146Z,9.97
2018-09-17T01:45:29.180Z,10.90
2018-09-17T01:47:58.386Z,9.70
2018-09-17T01:50:27.187Z,9.40
2018-09-17T01:52:56.004Z,11.97
2018-09-17T01:55:24.946Z,12.10
2018-09-17T01:57:53.830Z,10.93
2018-09-17T02:00:22.771Z,11.73
2018-09-17T02:02:55.060Z,13.07
2018-09-17T02:05:24.031Z,12.00
2018-09-17T02:07:53.038Z,10.83
2018-09-17T02:10:22.033Z,11.67
2018-09-17T02:12:58.744Z,13.20
2018-09-17T02:15:27.791Z,12.23
2018-09-17T02:17:56.592Z,12.57
2018-09-17T02:20:25.595Z,13.40
2018-09-17T02:22:54.560Z,12.20
2018-09-17T02:25:23.414Z,11.90
2018-09-17T02:27:52.530Z,13.03
2018-09-17T02:30:21.375Z,13.00
2018-09-17T02:32:50.188Z,12.30
2018-09-17T02:35:19.209Z,12.37
2018-09-17T02:37:48.039Z,12.60
2018-09-17T02:40:18.193Z,12.63
2018-09-17T02:42:50.314Z,12.20
2018-09-17T02:45:20.147Z,14.67
2018-09-17T02:47:49.000Z,12.27
2018-09-17T02:50:17.889Z,15.60
2018-09-17T02:52:46.667Z,17.03
2018-09-17T02:55:15.642Z,16.30
2018-09-17T02:57:44.451Z,17.03
2018-09-17T03:00:13.568Z,18.43
2018-09-17T03:02:43.571Z,15.30
2018-09-17T03:05:12.432Z,15.43
2018-09-17T03:07:41.275Z,17.27
2018-09-17T03:10:10.178Z,15.00
2018-09-17T03:12:39.470Z,15.83
2018-09-17T03:15:19.391Z,16.37
2018-09-17T03:17:48.243Z,16.33
2018-09-17T03:20:17.246Z,17.47
2018-09-17T03:22:46.071Z,15.87
2018-09-17T03:25:14.949Z,17.77
2018-09-17T03:27:43.893Z,17.50
2018-09-17T03:30:12.999Z,17.90
2018-09-17T03:32:41.889Z,15.67
2018-09-17T03:35:10.797Z,16.60
2018-09-17T03:37:39.779Z,17.13
2018-09-17T03:40:08.683Z,16.87
2018-09-17T03:42:37.573Z,16.67
2018-09-17T03:45:06.461Z,18.00
2018-09-17T03:47:35.340Z,17.20
2018-09-17T03:50:04.175Z,20.20
2018-09-17T03:52:33.032Z,19.27
2018-09-17T03:55:01.943Z,20.40
2018-09-17T03:57:30.784Z,20.63
2018-09-17T03:59:59.620Z,20.63
2018-09-17T04:02:28.466Z,19.83
2018-09-17T04:04:57.257Z,21.27
2018-09-17T04:07:26.073Z,22.70
2018-09-17T04:09:55.097Z,22.50
2018-09-17T04:12:23.881Z,22.33
2018-09-17T04:14:52.765Z,22.03
2018-09-17T04:17:21.769Z,22.17
2018-09-17T04:19:50.593Z,21.50
2018-09-17T04:22:19.535Z,23.90
2018-09-17T04:24:48.467Z,22.63
2018-09-17T04:27:17.338Z,18.90
2018-09-17T04:29:46.383Z,18.97
2018-09-17T04:32:15.317Z,17.90
2018-09-17T04:34:44.217Z,17.87
2018-09-17T04:37:13.114Z,16.77
2018-09-17T04:39:42.030Z,18.07
2018-09-17T04:42:10.864Z,17.93
2018-09-17T04:44:39.781Z,19.30
2018-09-17T04:47:08.684Z,19.27
2018-09-17T04:49:37.668Z,19.83
2018-09-17T04:52:06.680Z,18.97
2018-09-17T04:54:35.688Z,17.90
2018-09-17T04:57:04.720Z,20.07
2018-09-17T04:59:33.616Z,21.50
2018-09-17T05:02:02.588Z,20.57
2018-09-17T05:04:38.648Z,21.63
2018-09-17T05:07:07.619Z,21.10
2018-09-17T05:09:36.533Z,20.30
2018-09-17T05:12:05.593Z,20.73
2018-09-17T05:14:34.473Z,20.63
2018-09-17T05:17:03.429Z,19.83
2018-09-17T05:19:32.487Z,21.77
2018-09-17T05:22:01.597Z,20.67
2018-09-17T05:24:30.617Z,18.37
2018-09-17T05:26:59.566Z,19.17
2018-09-17T05:29:28.577Z,17.90
2018-09-17T05:31:57.628Z,19.20
2018-09-17T05:34:26.641Z,21.13
2018-09-17T05:36:55.719Z,18.13
2018-09-17T05:39:24.747Z,19.43
2018-09-17T05:41:53.732Z,18.67
2018-09-17T05:44:22.660Z,20.77
2018-09-17T05:46:51.625Z,19.13
2018-09-17T05:49:20.643Z,19.17
2018-09-17T05:51:49.640Z,19.70
2018-09-17T05:54:18.665Z,19.80
2018-09-17T05:56:47.728Z,17.57
2018-09-17T05:59:16.700Z,17.93
2018-09-17T06:01:45.582Z,17.57
2018-09-17T06:04:14.470Z,21.60
2018-09-17T06:06:43.418Z,21.60
2018-09-17T06:09:13.503Z,19.97
2018-09-17T06:11:42.434Z,18.23
2018-09-17T06:14:11.515Z,18.93
2018-09-17T06:16:40.577Z,16.73
2018-09-17T06:19:09.473Z,18.13
2018-09-17T06:21:38.334Z,19.03
2018-09-17T06:24:07.270Z,17.23
2018-09-17T06:26:36.237Z,17.73
2018-09-17T06:29:05.186Z,17.37
2018-09-17T06:31:34.117Z,16.13
2018-09-17T06:34:17.447Z,19.03
2018-09-17T06:36:46.287Z,17.07
2018-09-17T06:39:15.061Z,18.30
2018-09-17T06:41:43.971Z,16.27
2018-09-17T06:44:14.923Z,18.27
2018-09-17T06:46:43.924Z,16.67
2018-09-17T06:49:12.784Z,17.73
2018-09-17T06:51:41.685Z,17.03
2018-09-17T06:54:11.768Z,17.67
2018-09-17T06:56:40.723Z,16.57
2018-09-17T06:59:09.603Z,17.47
2018-09-17T07:01:38.574Z,15.40
2018-09-17T07:04:11.034Z,15.90
2018-09-17T07:06:40.057Z,15.57
2018-09-17T07:09:11.412Z,15.50
2018-09-17T07:11:40.547Z,15.53
2018-09-17T07:14:09.866Z,15.43
2018-09-17T07:16:39.683Z,15.93
2018-09-17T07:19:08.616Z,14.53
2018-09-17T07:21:37.599Z,14.03
2018-09-17T07:24:07.620Z,14.27
2018-09-17T07:26:36.614Z,14.67
2018-09-17T07:29:05.779Z,15.10
2018-09-17T07:31:34.649Z,13.17
2018-09-17T07:34:03.717Z,14.70
2018-09-17T07:36:32.985Z,12.53
2018-09-17T07:39:01.957Z,13.73
2018-09-17T07:41:30.864Z,12.30
2018-09-17T07:44:00.959Z,12.10
2018-09-17T07:46:30.041Z,11.93
2018-09-17T07:48:58.936Z,12.30
2018-09-17T07:51:27.839Z,10.47
2018-09-17T07:54:02.596Z,12.33
2018-09-17T07:56:31.560Z,9.53
2018-09-17T07:59:01.207Z,11.00
2018-09-17T08:01:31.168Z,8.77
2018-09-17T08:04:04.568Z,9.53
2018-09-17T08:06:33.706Z,9.50
2018-09-17T08:09:03.029Z,12.03
2018-09-17T08:11:34.000Z,9.90
2018-09-17T08:14:03.524Z,10.43
2018-09-17T08:16:36.628Z,8.17
2018-09-17T08:19:08.765Z,11.37
2018-09-17T08:21:38.449Z,10.20
2018-09-17T08:24:15.909Z,10.00
2018-09-17T08:26:44.976Z,9.13
2018-09-17T08:29:14.054Z,8.27
2018-09-17T08:31:45.739Z,7.67
2018-09-17T08:34:36.285Z,8.63
2018-09-17T08:37:05.441Z,8.97
2018-09-17T08:39:35.468Z,9.90
2018-09-17T08:42:04.645Z,8.97
2018-09-17T08:44:34.856Z,9.47
2018-09-17T08:47:03.980Z,9.40
2018-09-17T08:49:33.289Z,8.23
2018-09-17T08:52:03.998Z,7.20
2018-09-17T08:54:39.404Z,8.63
2018-09-17T08:57:14.324Z,8.53
2018-09-17T08:59:51.328Z,10.47
2018-09-17T09:02:26.631Z,8.10
2018-09-17T09:04:56.788Z,8.37
2018-09-17T09:07:36.429Z,8.70
2018-09-17T09:10:11.504Z,7.90
2018-09-17T09:12:41.849Z,6.97
2018-09-17T09:15:18.091Z,6.10
2018-09-17T09:17:49.349Z,7.07
2018-09-17T09:20:20.217Z,8.37
2018-09-17T09:23:02.682Z,8.30
2018-09-17T09:25:49.445Z,6.53
2018-09-17T09:28:19.195Z,6.67
2018-09-17T09:30:55.152Z,8.13
2018-09-17T09:33:24.434Z,8.57
2018-09-17T09:35:54.240Z,9.00
2018-09-17T09:38:23.378Z,7.47
2018-09-17T09:40:52.637Z,8.20
2018-09-17T09:43:33.508Z,6.27
2018-09-17T09:46:15.569Z,7.47
2018-09-17T09:48:45.418Z,8.50
2018-09-17T09:51:14.553Z,7.40
2018-09-17T09:53:43.697Z,7.33
2018-09-17T09:56:13.247Z,7.37
2018-09-17T09:58:42.430Z,7.63
2018-09-17T10:01:20.819Z,7.00
2018-09-17T10:03:55.172Z,7.77
2018-09-17T10:06:24.368Z,7.10
2018-09-17T10:08:58.993Z,5.93
2018-09-17T10:11:33.419Z,6.17
2018-09-17T10:14:11.020Z,6.57
2018-09-17T10:17:11.165Z,5.93
2018-09-17T10:19:50.313Z,5.57
2018-09-17T10:22:20.429Z,5.03
2018-09-17T10:24:49.664Z,4.97
2018-09-17T10:27:32.142Z,4.93
2018-09-17T10:30:01.706Z,4.70
2018-09-17T10:32:30.763Z,5.00
2018-09-17T10:34:59.896Z,3.90
2018-09-17T10:37:39.955Z,3.47
2018-09-17T10:40:09.209Z,3.77
2018-09-17T10:42:38.288Z,4.03
2018-09-17T10:45:10.702Z,4.00
2018-09-17T10:47:52.597Z,4.03
2018-09-17T10:50:21.794Z,4.00
2018-09-17T10:52:51.098Z,2.90
2018-09-17T10:55:20.289Z,4.07
2018-09-17T10:57:51.268Z,3.10
2018-09-17T11:00:21.677Z,3.40
2018-09-17T11:02:50.891Z,3.40
2018-09-17T11:05:21.002Z,3.60
2018-09-17T11:07:57.907Z,3.70
2018-09-17T11:10:30.887Z,3.03
2018-09-17T11:13:00.348Z,2.80
2018-09-17T11:15:34.750Z,3.50
2018-09-17T11:18:04.203Z,4.30
2018-09-17T11:20:33.425Z,3.83
2018-09-17T11:23:03.345Z,3.60
2018-09-17T11:25:33.133Z,3.90
2018-09-17T11:28:02.207Z,4.40
2018-09-17T11:30:31.347Z,4.70
2018-09-17T11:33:01.752Z,3.40
2018-09-17T11:35:33.094Z,4.40
2018-09-17T11:38:08.064Z,4.50
2018-09-17T11:40:41.545Z,4.90
2018-09-17T11:43:11.257Z,3.10
2018-09-17T11:45:40.672Z,4.30
2018-09-17T11:48:09.853Z,3.40
2018-09-17T11:50:38.954Z,3.53
2018-09-17T11:53:08.094Z,3.73
2018-09-17T11:55:37.145Z,3.77
2018-09-17T11:58:13.544Z,3.00
2018-09-17T12:00:47.656Z,4.10
2018-09-17T12:03:21.811Z,4.00
2018-09-17T12:05:56.108Z,4.20
2018-09-17T12:08:32.627Z,3.20
2018-09-17T12:11:01.731Z,4.40
2018-09-17T12:13:30.787Z,4.67
2018-09-17T12:15:59.829Z,4.43
2018-09-17T12:18:29.903Z,4.87
2018-09-17T12:20:58.923Z,5.60
2018-09-17T12:23:27.850Z,4.03
2018-09-17T12:25:56.785Z,4.60
2018-09-17T12:28:25.627Z,4.40
2018-09-17T12:30:54.547Z,4.20
2018-09-17T12:33:23.531Z,3.67
2018-09-17T12:35:52.463Z,5.37
2018-09-17T12:38:35.358Z,4.77
2018-09-17T12:41:04.467Z,4.73
2018-09-17T12:43:33.439Z,4.33
2018-09-17T12:46:02.515Z,3.73
2018-09-17T12:48:55.400Z,4.57
2018-09-17T12:51:24.451Z,4.10
2018-09-17T12:53:53.431Z,3.90
2018-09-17T12:56:22.408Z,5.00
2018-09-17T12:58:51.443Z,5.20
2018-09-17T13:01:20.347Z,4.07
2018-09-17T13:03:49.360Z,5.50
2018-09-17T13:06:18.366Z,5.03
2018-09-17T13:08:48.383Z,4.30
2018-09-17T13:11:17.494Z,4.73
2018-09-17T13:13:46.441Z,5.17
2018-09-17T13:16:15.333Z,5.30
2018-09-17T13:18:45.228Z,4.40
2018-09-17T13:21:14.128Z,4.13
2018-09-17T13:23:43.061Z,4.17
2018-09-17T13:26:11.982Z,4.43
2018-09-17T13:28:42.999Z,5.17
2018-09-17T13:31:11.998Z,4.70
2018-09-17T13:33:41.045Z,5.77
2018-09-17T13:36:09.968Z,5.30
2018-09-17T13:38:39.055Z,4.07
2018-09-17T13:41:08.076Z,4.60
2018-09-17T13:43:37.032Z,5.07
2018-09-17T13:46:05.992Z,4.90
2018-09-17T13:48:35.039Z,4.23
2018-09-17T13:51:03.932Z,5.40
2018-09-17T13:53:33.011Z,4.83
2018-09-17T13:56:01.884Z,5.30
2018-09-17T13:58:31.941Z,5.10
2018-09-17T14:01:00.898Z,5.27
2018-09-17T14:03:29.916Z,3.97
2018-09-17T14:05:58.894Z,4.50
2018-09-17T14:08:38.077Z,5.13
2018-09-17T14:11:07.182Z,4.77
2018-09-17T14:13:36.138Z,5.00
2018-09-17T14:16:07.839Z,4.37
2018-09-17T14:18:37.837Z,4.83
2018-09-17T14:21:07.321Z,4.53
2018-09-17T14:23:36.313Z,5.55
2018-09-17T14:26:05.284Z,4.33
2018-09-17T14:29:00.468Z,3.22
2018-09-17T14:31:34.480Z,5.17
2018-09-17T14:34:03.431Z,4.33
2018-09-17T14:36:32.317Z,3.87
2018-09-17T14:39:05.504Z,4.17
2018-09-17T14:41:34.469Z,4.25
2018-09-17T14:44:03.516Z,3.22
2018-09-17T14:46:32.393Z,4.42
2018-09-17T14:49:08.844Z,4.97
2018-09-17T14:51:37.773Z,3.98
2018-09-17T14:54:06.791Z,3.75
2018-09-17T14:56:35.737Z,3.58
2018-09-17T14:59:08.175Z,3.77
2018-09-17T15:01:37.193Z,4.83
2018-09-17T15:04:06.033Z,4.30
2018-09-17T15:06:34.996Z,4.03
2018-09-17T15:09:05.183Z,4.30
2018-09-17T15:11:34.156Z,3.70
2018-09-17T15:14:03.217Z,3.20
2018-09-17T15:16:32.161Z,3.27
2018-09-17T15:19:01.120Z,3.33
2018-09-17T15:21:30.078Z,3.93
2018-09-17T15:23:59.077Z,3.87
2018-09-17T15:26:27.957Z,3.23
2018-09-17T15:28:57.032Z,4.60
2018-09-17T15:31:26.019Z,4.40
2018-09-17T15:33:55.121Z,3.73
2018-09-17T15:36:24.015Z,3.80
2018-09-17T15:38:53.047Z,3.83
2018-09-17T15:41:22.315Z,4.20
2018-09-17T15:43:51.170Z,3.97
2018-09-17T15:46:20.176Z,3.70
2018-09-17T15:48:49.181Z,3.80
2018-09-17T15:51:18.183Z,3.57
2018-09-17T15:53:47.215Z,4.10
2018-09-17T15:56:16.212Z,3.77
2018-09-17T15:58:45.133Z,3.10
2018-09-17T16:01:14.977Z,3.03
2018-09-17T16:03:44.000Z,3.53
2018-09-17T16:06:12.893Z,3.53
2018-09-17T16:08:41.865Z,2.80
2018-09-17T16:11:10.835Z,3.30
2018-09-17T16:13:39.797Z,3.97
2018-09-17T16:16:08.781Z,4.07
2018-09-17T16:18:37.795Z,3.40
2018-09-17T16:21:06.656Z,3.33
2018-09-17T16:23:35.737Z,3.70
2018-09-17T16:26:04.733Z,2.97
2018-09-17T16:28:33.848Z,3.80
2018-09-17T16:31:02.726Z,3.10
2018-09-17T16:33:31.799Z,3.50
2018-09-17T16:36:00.750Z,3.33
2018-09-17T16:38:29.784Z,4.07
2018-09-17T16:40:58.672Z,3.70
2018-09-17T16:43:27.720Z,3.23
2018-09-17T16:45:56.679Z,3.30
2018-09-17T16:48:25.634Z,4.73
2018-09-17T16:50:54.669Z,3.63
2018-09-17T16:53:23.721Z,3.60
2018-09-17T16:55:52.544Z,3.40
2018-09-17T16:58:21.439Z,2.90
2018-09-17T17:00:50.316Z,3.13
2018-09-17T17:03:19.362Z,2.93
2018-09-17T17:05:48.225Z,3.77
2018-09-17T17:08:18.205Z,3.07
2018-09-17T17:10:47.153Z,2.90
2018-09-17T17:13:16.263Z,3.80
2018-09-17T17:15:48.712Z,3.27
2018-09-17T17:18:19.945Z,2.63
2018-09-17T17:20:48.901Z,3.40
2018-09-17T17:23:18.286Z,2.90
2018-09-17T17:25:47.685Z,3.63
2018-09-17T17:28:17.368Z,3.03
2018-09-17T17:30:46.848Z,3.17
2018-09-17T17:33:16.411Z,2.90
2018-09-17T17:35:46.561Z,3.50
2018-09-17T17:38:15.962Z,3.10
2018-09-17T17:40:45.636Z,3.13
2018-09-17T17:43:15.115Z,4.60
2018-09-17T17:45:44.603Z,4.30
2018-09-17T17:48:14.048Z,3.60
2018-09-17T17:50:44.380Z,3.63
2018-09-17T17:53:13.905Z,3.17
2018-09-17T17:55:43.846Z,4.30
2018-09-17T17:58:15.253Z,3.20
2018-09-17T18:00:44.673Z,3.63
2018-09-17T18:03:14.395Z,3.67
2018-09-17T18:05:44.719Z,3.37
2018-09-17T18:08:15.134Z,2.70
2018-09-17T18:10:45.441Z,3.70
2018-09-17T18:13:16.358Z,3.37
2018-09-17T18:15:46.869Z,3.50
2018-09-17T18:18:16.512Z,3.60
2018-09-17T18:20:49.832Z,3.10
2018-09-17T18:23:19.736Z,3.10
2018-09-17T18:25:49.203Z,3.83
2018-09-17T18:28:18.671Z,3.70
2018-09-17T18:30:48.873Z,3.83
2018-09-17T18:33:18.406Z,2.87
2018-09-17T18:35:48.767Z,3.13
2018-09-17T18:38:18.242Z,3.10
2018-09-17T18:40:48.776Z,3.23
2018-09-17T18:43:18.275Z,3.10
2018-09-17T18:45:48.421Z,4.90
2018-09-17T18:48:17.940Z,3.57
2018-09-17T18:50:47.428Z,3.23
2018-09-17T18:53:18.791Z,4.17
2018-09-17T18:55:48.950Z,2.97
2018-09-17T18:58:19.474Z,3.47
2018-09-17T19:00:49.957Z,3.50
2018-09-17T19:03:20.946Z,2.73
2018-09-17T19:05:51.424Z,2.47
2018-09-17T19:08:22.374Z,2.70
2018-09-17T19:10:51.800Z,3.53
2018-09-17T19:13:21.277Z,3.20
2018-09-17T19:15:53.860Z,3.23
2018-09-17T19:18:24.413Z,3.90
2018-09-17T19:20:58.204Z,2.60
2018-09-17T19:23:32.790Z,3.40
2018-09-17T19:26:07.548Z,3.37
2018-09-17T19:28:42.753Z,3.30
2018-09-17T19:31:12.252Z,3.40
2018-09-17T19:33:41.795Z,3.50
2018-09-17T19:36:12.165Z,3.23
2018-09-17T19:38:47.181Z,3.23
2018-09-17T19:41:16.945Z,3.70
2018-09-17T19:43:47.533Z,3.93
2018-09-17T19:46:17.978Z,3.13
2018-09-17T19:48:48.201Z,3.33
2018-09-17T19:51:23.422Z,3.50
2018-09-17T19:53:57.000Z,5.03
2018-09-17T19:56:26.489Z,4.30
2018-09-17T20:00:04.515Z,4.50
2018-09-17T20:02:34.013Z,4.70
2018-09-17T20:05:08.833Z,4.77
2018-09-17T20:07:38.641Z,4.20
2018-09-17T20:10:08.990Z,5.73
2018-09-17T20:12:39.414Z,5.43
2018-09-17T20:15:08.956Z,6.47
2018-09-17T20:17:39.036Z,7.53
2018-09-17T20:20:09.061Z,6.90
2018-09-17T20:22:38.781Z,6.70
2018-09-17T20:25:08.843Z,7.97
2018-09-17T20:27:38.333Z,9.17
2018-09-17T20:30:08.317Z,8.90
2018-09-17T20:32:39.156Z,8.43
2018-09-17T20:35:09.342Z,8.77
2018-09-17T20:37:38.986Z,8.73
2018-09-17T20:40:08.529Z,9.00
2018-09-17T20:42:38.903Z,8.00
2018-09-17T20:45:08.247Z,7.10
2018-09-17T20:47:38.033Z,7.70
2018-09-17T20:50:07.485Z,8.90
2018-09-17T20:52:37.079Z,7.40
2018-09-17T20:55:06.522Z,7.97
2018-09-17T20:57:36.288Z,7.23
2018-09-17T21:00:05.969Z,9.23
2018-09-17T21:02:36.603Z,9.53
2018-09-17T21:05:06.058Z,9.70
2018-09-17T21:07:35.680Z,10.90
2018-09-17T21:10:05.268Z,10.80
2018-09-17T21:12:35.884Z,9.33
2018-09-17T21:15:05.837Z,10.83
2018-09-17T21:17:35.325Z,8.90
2018-09-17T21:20:04.879Z,10.43
2018-09-17T21:22:34.410Z,10.13
2018-09-17T21:25:03.994Z,10.20
2018-09-17T21:27:33.479Z,10.37
2018-09-17T21:30:02.953Z,10.60
2018-09-17T21:32:32.461Z,9.47
2018-09-17T21:35:01.930Z,9.60
2018-09-17T21:37:31.482Z,12.27
2018-09-17T21:40:00.997Z,10.37
2018-09-17T21:42:30.013Z,10.53
2018-09-17T21:44:59.375Z,8.93
2018-09-17T21:47:28.394Z,10.27
2018-09-17T21:49:58.567Z,8.63
2018-09-17T21:52:27.517Z,10.70
2018-09-17T21:54:56.478Z,11.50
2018-09-17T21:57:25.478Z,9.57
2018-09-17T21:59:54.356Z,9.90
2018-09-17T22:02:23.333Z,8.53
2018-09-17T22:04:52.244Z,8.90
2018-09-17T22:07:21.311Z,8.37
2018-09-17T22:09:50.138Z,9.67
2018-09-17T22:12:19.203Z,9.40
2018-09-17T22:14:48.162Z,8.67
2018-09-17T22:17:17.173Z,9.20
2018-09-17T22:19:46.252Z,7.40
2018-09-17T22:22:15.203Z,8.37
2018-09-17T22:24:44.349Z,8.10
2018-09-17T22:27:13.505Z,8.90
2018-09-17T22:29:42.318Z,8.77
2018-09-17T22:32:11.266Z,9.43
2018-09-17T22:34:40.310Z,6.70
2018-09-17T22:37:09.288Z,7.00
2018-09-17T22:39:38.179Z,8.07
2018-09-17T22:42:07.279Z,7.40
2018-09-17T22:44:36.182Z,6.53
2018-09-17T22:47:05.244Z,7.10
2018-09-17T22:49:34.081Z,8.10
2018-09-17T22:52:03.090Z,7.23
2018-09-17T22:54:32.112Z,7.70
2018-09-17T22:57:01.108Z,7.80
2018-09-17T22:59:30.135Z,6.93
2018-09-17T23:01:59.136Z,6.23
2018-09-17T23:04:28.009Z,6.77
2018-09-17T23:06:56.885Z,6.17
2018-09-17T23:09:25.835Z,5.20
2018-09-17T23:11:54.778Z,5.70
2018-09-17T23:14:23.836Z,6.97
2018-09-17T23:16:52.708Z,5.37
2018-09-17T23:19:22.169Z,5.80
2018-09-17T23:21:51.034Z,5.30
2018-09-17T23:24:20.009Z,4.83
2018-09-17T23:26:48.973Z,5.10
2018-09-17T23:29:17.935Z,4.13
2018-09-17T23:31:46.935Z,4.20
2018-09-17T23:34:15.865Z,5.67
2018-09-17T23:36:44.832Z,5.03
2018-09-17T23:39:13.847Z,4.73
2018-09-17T23:41:42.857Z,4.90
2018-09-17T23:44:11.846Z,6.00
2018-09-17T23:46:40.723Z,5.57
2018-09-17T23:49:09.706Z,4.50
2018-09-17T23:51:38.721Z,6.03
2018-09-17T23:54:07.613Z,5.10
2018-09-17T23:56:36.643Z,5.63
2018-09-17T23:59:05.746Z,4.70
